JNA272 RJFF-RKSI
Flight info
| Callsign | JNA272 |
|---|---|
| Flight time | 0h 54m |
| Altitude | 36000 |
| Route | DGC G339 BEETL Y208 INVOK Z91 PSN Y782 BITUX Z53 BASEM Y685 GUKDO |
| Aircraft | B772/H-SDE2E3FGHIJ5LORVWXY/LB1D1 |
Departure
| Time | 2026-05-05 11:47 |
|---|---|
| Airport | Fukuoka Airport (RJFF) |
Arrival
| Time | 2026-05-05 12:42 |
|---|---|
| Airport | Incheon International Airport (RKSI) |
| Time | Latitude | Longitude | Altitude | Speed | Heading |
|---|---|---|---|---|---|
| 2026-05-05 11:21 | 33.58756 | 130.44386 | 35 ft | 0 kts | 240° |
| 2026-05-05 11:35 | 33.58764 | 130.44401 | 35 ft | 3 kts | 240° |
| 2026-05-05 11:35 | 33.58774 | 130.44422 | 35 ft | 3 kts | 240° |
| 2026-05-05 11:36 | 33.58782 | 130.44440 | 36 ft | 3 kts | 238° |
| 2026-05-05 11:36 | 33.58794 | 130.44458 | 36 ft | 3 kts | 211° |
| 2026-05-05 11:36 | 33.58810 | 130.44465 | 36 ft | 3 kts | 167° |
| 2026-05-05 11:36 | 33.58827 | 130.44457 | 37 ft | 3 kts | 150° |
| 2026-05-05 11:37 | 33.58844 | 130.44445 | 37 ft | 2 kts | 150° |
| 2026-05-05 11:37 | 33.58845 | 130.44445 | 36 ft | 0 kts | 150° |
| 2026-05-05 11:41 | 33.58790 | 130.44482 | 37 ft | 15 kts | 150° |
| 2026-05-05 11:41 | 33.58702 | 130.44543 | 36 ft | 15 kts | 150° |
| 2026-05-05 11:41 | 33.58633 | 130.44595 | 40 ft | 7 kts | 130° |
| 2026-05-05 11:41 | 33.58612 | 130.44650 | 41 ft | 16 kts | 118° |
| 2026-05-05 11:42 | 33.58515 | 130.44733 | 41 ft | 17 kts | 152° |
| 2026-05-05 11:42 | 33.58410 | 130.44803 | 43 ft | 17 kts | 151° |
| 2026-05-05 11:42 | 33.58305 | 130.44873 | 42 ft | 17 kts | 151° |
| 2026-05-05 11:42 | 33.58199 | 130.44943 | 40 ft | 17 kts | 151° |
| 2026-05-05 11:43 | 33.58094 | 130.45012 | 42 ft | 17 kts | 151° |
| 2026-05-05 11:43 | 33.57989 | 130.45082 | 40 ft | 17 kts | 151° |
| 2026-05-05 11:43 | 33.57884 | 130.45151 | 42 ft | 17 kts | 151° |
| 2026-05-05 11:43 | 33.57778 | 130.45220 | 41 ft | 17 kts | 151° |
| 2026-05-05 11:44 | 33.57677 | 130.45297 | 44 ft | 17 kts | 148° |
| 2026-05-05 11:44 | 33.57575 | 130.45374 | 47 ft | 17 kts | 148° |
| 2026-05-05 11:44 | 33.57491 | 130.45424 | 44 ft | 17 kts | 150° |
| 2026-05-05 11:45 | 33.57451 | 130.45451 | 43 ft | 17 kts | 150° |
| 2026-05-05 11:45 | 33.57396 | 130.45561 | 46 ft | 17 kts | 75° |
| 2026-05-05 11:45 | 33.57434 | 130.45654 | 49 ft | 10 kts | 60° |
| 2026-05-05 11:45 | 33.57469 | 130.45729 | 48 ft | 10 kts | 60° |
| 2026-05-05 11:46 | 33.57517 | 130.45784 | 46 ft | 10 kts | 1° |
| 2026-05-05 11:46 | 33.57584 | 130.45749 | 48 ft | 11 kts | 327° |
| 2026-05-05 11:46 | 33.57650 | 130.45709 | 45 ft | 11 kts | 333° |
| 2026-05-05 11:46 | 33.57657 | 130.45704 | 48 ft | 0 kts | 330° |
| 2026-05-05 11:47 | 33.57760 | 130.45634 | 49 ft | 48 kts | 330° |
| 2026-05-05 11:47 | 33.58311 | 130.45264 | 42 ft | 131 kts | 327° |
| 2026-05-05 11:47 | 33.59262 | 130.44581 | 393 ft | 168 kts | 329° |
| 2026-05-05 11:47 | 33.60215 | 130.43932 | 1517 ft | 159 kts | 330° |
| 2026-05-05 11:48 | 33.62174 | 130.42617 | 2837 ft | 162 kts | 331° |
| 2026-05-05 11:48 | 33.63164 | 130.41960 | 3398 ft | 166 kts | 333° |
| 2026-05-05 11:48 | 33.64242 | 130.41247 | 3653 ft | 190 kts | 333° |
| 2026-05-05 11:49 | 33.65463 | 130.40434 | 3849 ft | 215 kts | 333° |
| 2026-05-05 11:49 | 33.66860 | 130.39502 | 4003 ft | 244 kts | 333° |
| 2026-05-05 11:49 | 33.68383 | 130.38398 | 4304 ft | 266 kts | 326° |
| 2026-05-05 11:49 | 33.69884 | 130.37026 | 4916 ft | 276 kts | 322° |
| 2026-05-05 11:50 | 33.71391 | 130.35565 | 5651 ft | 280 kts | 320° |
| 2026-05-05 11:50 | 33.72400 | 130.34580 | 6200 ft | 281 kts | 320° |
| 2026-05-05 11:50 | 33.74440 | 130.32594 | 7306 ft | 283 kts | 319° |
| 2026-05-05 11:50 | 33.75988 | 130.31096 | 8083 ft | 287 kts | 319° |
| 2026-05-05 11:51 | 33.77026 | 130.30095 | 8592 ft | 290 kts | 319° |
| 2026-05-05 11:51 | 33.78615 | 130.28568 | 9339 ft | 295 kts | 318° |
| 2026-05-05 11:51 | 33.80233 | 130.27015 | 10099 ft | 299 kts | 319° |
| 2026-05-05 11:51 | 33.81900 | 130.25415 | 10562 ft | 318 kts | 319° |
| 2026-05-05 11:52 | 33.83702 | 130.23684 | 10773 ft | 346 kts | 319° |
| 2026-05-05 11:52 | 33.86306 | 130.21190 | 11432 ft | 371 kts | 319° |
| 2026-05-05 11:52 | 33.87686 | 130.19873 | 12001 ft | 378 kts | 319° |
| 2026-05-05 11:52 | 33.89764 | 130.17893 | 13006 ft | 383 kts | 320° |
| 2026-05-05 11:53 | 33.91865 | 130.15890 | 14116 ft | 386 kts | 319° |
| 2026-05-05 11:53 | 33.93975 | 130.13878 | 15208 ft | 388 kts | 319° |
| 2026-05-05 11:53 | 33.96098 | 130.11849 | 16239 ft | 392 kts | 319° |
| 2026-05-05 11:53 | 33.98241 | 130.09798 | 17195 ft | 395 kts | 318° |
| 2026-05-05 11:54 | 34.00405 | 130.07724 | 18112 ft | 399 kts | 318° |
| 2026-05-05 11:54 | 34.02589 | 130.05630 | 18986 ft | 403 kts | 318° |
| 2026-05-05 11:54 | 34.04793 | 130.03514 | 19817 ft | 407 kts | 318° |
| 2026-05-05 11:54 | 34.07017 | 130.01379 | 20609 ft | 411 kts | 318° |
| 2026-05-05 11:55 | 34.09236 | 129.99248 | 21364 ft | 415 kts | 317° |
| 2026-05-05 11:55 | 34.11506 | 129.97065 | 22099 ft | 419 kts | 317° |
| 2026-05-05 11:55 | 34.13798 | 129.94859 | 22823 ft | 424 kts | 317° |
| 2026-05-05 11:55 | 34.16115 | 129.92627 | 23519 ft | 428 kts | 317° |
| 2026-05-05 11:56 | 34.18458 | 129.90370 | 24241 ft | 432 kts | 317° |
| 2026-05-05 11:56 | 34.20812 | 129.88102 | 24940 ft | 435 kts | 316° |
| 2026-05-05 11:56 | 34.23183 | 129.85815 | 25609 ft | 437 kts | 316° |
| 2026-05-05 11:56 | 34.25569 | 129.83510 | 26292 ft | 439 kts | 315° |
| 2026-05-05 11:57 | 34.27969 | 129.81201 | 26935 ft | 442 kts | 314° |
| 2026-05-05 11:57 | 34.30384 | 129.78895 | 27491 ft | 443 kts | 314° |
| 2026-05-05 11:57 | 34.32823 | 129.76577 | 27970 ft | 447 kts | 313° |
| 2026-05-05 11:57 | 34.35268 | 129.74238 | 28487 ft | 449 kts | 312° |
| 2026-05-05 11:58 | 34.37731 | 129.71887 | 28952 ft | 453 kts | 312° |
| 2026-05-05 11:58 | 34.40214 | 129.69525 | 29398 ft | 455 kts | 311° |
| 2026-05-05 11:58 | 34.42669 | 129.67180 | 29824 ft | 457 kts | 311° |
| 2026-05-05 11:58 | 34.45166 | 129.64794 | 30296 ft | 455 kts | 311° |
| 2026-05-05 11:59 | 34.47664 | 129.62420 | 30670 ft | 457 kts | 311° |
| 2026-05-05 11:59 | 34.50162 | 129.60022 | 31021 ft | 459 kts | 310° |
| 2026-05-05 11:59 | 34.52662 | 129.57613 | 31476 ft | 457 kts | 311° |
| 2026-05-05 11:59 | 34.55145 | 129.55219 | 31903 ft | 457 kts | 311° |
| 2026-05-05 12:00 | 34.57638 | 129.52813 | 32137 ft | 459 kts | 311° |
| 2026-05-05 12:00 | 34.60150 | 129.50393 | 32117 ft | 461 kts | 311° |
| 2026-05-05 12:00 | 34.65153 | 129.45583 | 32120 ft | 459 kts | 311° |
| 2026-05-05 12:01 | 34.70161 | 129.40752 | 32112 ft | 461 kts | 311° |
| 2026-05-05 12:01 | 34.75184 | 129.35899 | 32105 ft | 461 kts | 312° |
| 2026-05-05 12:02 | 34.80210 | 129.31036 | 32106 ft | 461 kts | 312° |
| 2026-05-05 12:02 | 34.85237 | 129.26178 | 32102 ft | 462 kts | 312° |
| 2026-05-05 12:03 | 34.90270 | 129.21312 | 32100 ft | 463 kts | 313° |
| 2026-05-05 12:03 | 34.95309 | 129.16429 | 32102 ft | 463 kts | 313° |
| 2026-05-05 12:04 | 35.00351 | 129.11535 | 32101 ft | 463 kts | 313° |
| 2026-05-05 12:04 | 35.05365 | 129.06658 | 32095 ft | 465 kts | 313° |
| 2026-05-05 12:05 | 35.10453 | 129.01727 | 32098 ft | 471 kts | 315° |
| 2026-05-05 12:05 | 35.16115 | 128.97511 | 32124 ft | 483 kts | 327° |
| 2026-05-05 12:06 | 35.22207 | 128.93986 | 32098 ft | 485 kts | 327° |
| 2026-05-05 12:06 | 35.28299 | 128.90452 | 32106 ft | 484 kts | 327° |
| 2026-05-05 12:07 | 35.34366 | 128.86872 | 32099 ft | 483 kts | 327° |
| 2026-05-05 12:07 | 35.40411 | 128.83282 | 32103 ft | 483 kts | 327° |
| 2026-05-05 12:08 | 35.46440 | 128.79698 | 32122 ft | 481 kts | 327° |
| 2026-05-05 12:08 | 35.52459 | 128.76121 | 32134 ft | 480 kts | 328° |
| 2026-05-05 12:09 | 35.58459 | 128.72555 | 32159 ft | 478 kts | 328° |
| 2026-05-05 12:09 | 35.64463 | 128.68978 | 32160 ft | 481 kts | 328° |
| 2026-05-05 12:10 | 35.70480 | 128.65364 | 32158 ft | 481 kts | 328° |
| 2026-05-05 12:10 | 35.76497 | 128.61717 | 32121 ft | 482 kts | 328° |
| 2026-05-05 12:11 | 35.82468 | 128.58088 | 32075 ft | 481 kts | 328° |
| 2026-05-05 12:11 | 35.88506 | 128.54418 | 32064 ft | 480 kts | 328° |
| 2026-05-05 12:12 | 35.94456 | 128.50797 | 32047 ft | 479 kts | 328° |
| 2026-05-05 12:12 | 36.00438 | 128.47151 | 32039 ft | 479 kts | 329° |
| 2026-05-05 12:13 | 36.06414 | 128.43504 | 32030 ft | 479 kts | 329° |
| 2026-05-05 12:13 | 36.12383 | 128.39851 | 32019 ft | 479 kts | 329° |
| 2026-05-05 12:14 | 36.18353 | 128.36194 | 32015 ft | 479 kts | 329° |
| 2026-05-05 12:14 | 36.24330 | 128.32527 | 32025 ft | 479 kts | 329° |
| 2026-05-05 12:15 | 36.30299 | 128.28857 | 32035 ft | 479 kts | 329° |
| 2026-05-05 12:15 | 36.36259 | 128.25184 | 32054 ft | 478 kts | 329° |
| 2026-05-05 12:16 | 36.42183 | 128.21529 | 32070 ft | 478 kts | 329° |
| 2026-05-05 12:16 | 36.48146 | 128.17845 | 31984 ft | 479 kts | 329° |
| 2026-05-05 12:17 | 36.51164 | 128.15975 | 30905 ft | 488 kts | 330° |
| 2026-05-05 12:17 | 36.54209 | 128.14089 | 29901 ft | 488 kts | 330° |
| 2026-05-05 12:17 | 36.57242 | 128.12210 | 29009 ft | 484 kts | 330° |
| 2026-05-05 12:17 | 36.60244 | 128.10351 | 28184 ft | 479 kts | 330° |
| 2026-05-05 12:18 | 36.63213 | 128.08509 | 27372 ft | 474 kts | 331° |
| 2026-05-05 12:18 | 36.66148 | 128.06686 | 26587 ft | 469 kts | 331° |
| 2026-05-05 12:18 | 36.69055 | 128.04876 | 25795 ft | 465 kts | 331° |
| 2026-05-05 12:18 | 36.71934 | 128.03082 | 25009 ft | 460 kts | 331° |
| 2026-05-05 12:19 | 36.74785 | 128.01305 | 24234 ft | 452 kts | 332° |
| 2026-05-05 12:19 | 36.77551 | 127.99580 | 23491 ft | 442 kts | 332° |
| 2026-05-05 12:19 | 36.80256 | 127.97891 | 22768 ft | 438 kts | 332° |
| 2026-05-05 12:19 | 36.82859 | 127.95941 | 22020 ft | 434 kts | 322° |
| 2026-05-05 12:20 | 36.85136 | 127.93496 | 21300 ft | 430 kts | 314° |
| 2026-05-05 12:20 | 36.87097 | 127.90702 | 20579 ft | 426 kts | 305° |
| 2026-05-05 12:20 | 36.88761 | 127.87652 | 19883 ft | 422 kts | 302° |
| 2026-05-05 12:20 | 36.90404 | 127.84619 | 19178 ft | 419 kts | 303° |
| 2026-05-05 12:21 | 36.92061 | 127.81632 | 18524 ft | 416 kts | 304° |
| 2026-05-05 12:21 | 36.93708 | 127.78692 | 18258 ft | 414 kts | 304° |
| 2026-05-05 12:21 | 36.95374 | 127.75743 | 18098 ft | 413 kts | 304° |
| 2026-05-05 12:21 | 36.97020 | 127.72836 | 18074 ft | 407 kts | 304° |
| 2026-05-05 12:22 | 36.98657 | 127.69937 | 18075 ft | 409 kts | 304° |
| 2026-05-05 12:22 | 37.00282 | 127.67056 | 18074 ft | 410 kts | 304° |
| 2026-05-05 12:22 | 37.01922 | 127.64144 | 18075 ft | 410 kts | 304° |
| 2026-05-05 12:22 | 37.03557 | 127.61224 | 18075 ft | 409 kts | 304° |
| 2026-05-05 12:23 | 37.05188 | 127.58301 | 18071 ft | 409 kts | 304° |
| 2026-05-05 12:23 | 37.06818 | 127.55380 | 18071 ft | 409 kts | 304° |
| 2026-05-05 12:23 | 37.08447 | 127.52459 | 18075 ft | 409 kts | 304° |
| 2026-05-05 12:23 | 37.10073 | 127.49543 | 18014 ft | 407 kts | 304° |
| 2026-05-05 12:24 | 37.11686 | 127.46645 | 17556 ft | 404 kts | 304° |
| 2026-05-05 12:24 | 37.13285 | 127.43771 | 16952 ft | 401 kts | 304° |
| 2026-05-05 12:24 | 37.14872 | 127.40913 | 16337 ft | 399 kts | 304° |
| 2026-05-05 12:24 | 37.16453 | 127.38064 | 15730 ft | 397 kts | 304° |
| 2026-05-05 12:25 | 37.18009 | 127.35257 | 15525 ft | 387 kts | 304° |
| 2026-05-05 12:25 | 37.19545 | 127.32483 | 15374 ft | 390 kts | 303° |
| 2026-05-05 12:25 | 37.21106 | 127.29660 | 15220 ft | 396 kts | 303° |
| 2026-05-05 12:25 | 37.22675 | 127.26822 | 15060 ft | 395 kts | 304° |
| 2026-05-05 12:26 | 37.24238 | 127.23994 | 14885 ft | 393 kts | 303° |
| 2026-05-05 12:26 | 37.25792 | 127.21179 | 14726 ft | 391 kts | 303° |
| 2026-05-05 12:26 | 37.27334 | 127.18383 | 14564 ft | 389 kts | 303° |
| 2026-05-05 12:26 | 37.28871 | 127.15595 | 14402 ft | 388 kts | 303° |
| 2026-05-05 12:27 | 37.30405 | 127.12809 | 14248 ft | 388 kts | 303° |
| 2026-05-05 12:27 | 37.31939 | 127.10021 | 14071 ft | 388 kts | 303° |
| 2026-05-05 12:27 | 37.33471 | 127.07234 | 13927 ft | 387 kts | 303° |
| 2026-05-05 12:27 | 37.35001 | 127.04449 | 13766 ft | 387 kts | 303° |
| 2026-05-05 12:28 | 37.36529 | 127.01662 | 13608 ft | 387 kts | 303° |
| 2026-05-05 12:28 | 37.38056 | 126.98876 | 13437 ft | 386 kts | 303° |
| 2026-05-05 12:28 | 37.39582 | 126.96092 | 13237 ft | 388 kts | 303° |
| 2026-05-05 12:28 | 37.41111 | 126.93301 | 13049 ft | 384 kts | 303° |
| 2026-05-05 12:29 | 37.42723 | 126.90653 | 12570 ft | 380 kts | 310° |
| 2026-05-05 12:29 | 37.44502 | 126.88212 | 12070 ft | 377 kts | 313° |
| 2026-05-05 12:29 | 37.46309 | 126.85842 | 11570 ft | 373 kts | 313° |
| 2026-05-05 12:29 | 37.48090 | 126.83482 | 11079 ft | 370 kts | 312° |
| 2026-05-05 12:30 | 37.49832 | 126.81125 | 10591 ft | 366 kts | 311° |
| 2026-05-05 12:30 | 37.51544 | 126.78771 | 10106 ft | 362 kts | 311° |
| 2026-05-05 12:30 | 37.53232 | 126.76434 | 9622 ft | 359 kts | 310° |
| 2026-05-05 12:30 | 37.54898 | 126.74124 | 9169 ft | 354 kts | 310° |
| 2026-05-05 12:31 | 37.56528 | 126.71858 | 8865 ft | 345 kts | 310° |
| 2026-05-05 12:31 | 37.58100 | 126.69677 | 8660 ft | 318 kts | 310° |
| 2026-05-05 12:31 | 37.59505 | 126.67731 | 8422 ft | 284 kts | 309° |
| 2026-05-05 12:31 | 37.60765 | 126.65982 | 8201 ft | 257 kts | 309° |
| 2026-05-05 12:32 | 37.61922 | 126.64375 | 7867 ft | 240 kts | 309° |
| 2026-05-05 12:32 | 37.62955 | 126.62818 | 7416 ft | 231 kts | 297° |
| 2026-05-05 12:32 | 37.63581 | 126.60983 | 7143 ft | 226 kts | 287° |
| 2026-05-05 12:32 | 37.64140 | 126.59143 | 6938 ft | 223 kts | 289° |
| 2026-05-05 12:33 | 37.64711 | 126.57332 | 6665 ft | 219 kts | 289° |
| 2026-05-05 12:33 | 37.65272 | 126.55565 | 6193 ft | 216 kts | 289° |
| 2026-05-05 12:33 | 37.65828 | 126.53815 | 5839 ft | 218 kts | 288° |
| 2026-05-05 12:33 | 37.66394 | 126.52031 | 5394 ft | 220 kts | 289° |
| 2026-05-05 12:34 | 37.66961 | 126.50243 | 4895 ft | 218 kts | 288° |
| 2026-05-05 12:34 | 37.67317 | 126.48396 | 4603 ft | 218 kts | 276° |
| 2026-05-05 12:34 | 37.67498 | 126.46464 | 4319 ft | 223 kts | 274° |
| 2026-05-05 12:34 | 37.67675 | 126.44511 | 4027 ft | 225 kts | 274° |
| 2026-05-05 12:35 | 37.67865 | 126.42542 | 3716 ft | 227 kts | 275° |
| 2026-05-05 12:35 | 37.68000 | 126.40591 | 3504 ft | 218 kts | 264° |
| 2026-05-05 12:35 | 37.67804 | 126.38735 | 3337 ft | 210 kts | 258° |
| 2026-05-05 12:35 | 37.67549 | 126.36948 | 3170 ft | 204 kts | 258° |
| 2026-05-05 12:36 | 37.67242 | 126.35259 | 3059 ft | 190 kts | 243° |
| 2026-05-05 12:36 | 37.66472 | 126.33991 | 2996 ft | 179 kts | 220° |
| 2026-05-05 12:36 | 37.65498 | 126.33018 | 2990 ft | 178 kts | 217° |
| 2026-05-05 12:36 | 37.64508 | 126.32080 | 2988 ft | 177 kts | 214° |
| 2026-05-05 12:37 | 37.63791 | 126.31631 | 2971 ft | 174 kts | 191° |
| 2026-05-05 12:37 | 37.62614 | 126.31852 | 2969 ft | 176 kts | 156° |
| 2026-05-05 12:37 | 37.61540 | 126.32594 | 2744 ft | 174 kts | 155° |
| 2026-05-05 12:37 | 37.60157 | 126.33575 | 2494 ft | 170 kts | 150° |
| 2026-05-05 12:38 | 37.59172 | 126.34399 | 2334 ft | 170 kts | 148° |
| 2026-05-05 12:38 | 37.58196 | 126.35259 | 2162 ft | 171 kts | 147° |
| 2026-05-05 12:38 | 37.57221 | 126.36129 | 2003 ft | 171 kts | 147° |
| 2026-05-05 12:38 | 37.56259 | 126.36993 | 1832 ft | 165 kts | 147° |
| 2026-05-05 12:39 | 37.55367 | 126.37790 | 1697 ft | 152 kts | 147° |
| 2026-05-05 12:39 | 37.54792 | 126.38303 | 1556 ft | 147 kts | 146° |
| 2026-05-05 12:39 | 37.53972 | 126.39036 | 1371 ft | 139 kts | 146° |
| 2026-05-05 12:39 | 37.53211 | 126.39718 | 1216 ft | 132 kts | 146° |
| 2026-05-05 12:40 | 37.52460 | 126.40388 | 1030 ft | 133 kts | 146° |
| 2026-05-05 12:40 | 37.51707 | 126.41055 | 844 ft | 131 kts | 147° |
| 2026-05-05 12:40 | 37.50988 | 126.41745 | 664 ft | 132 kts | 142° |
| 2026-05-05 12:40 | 37.50242 | 126.42405 | 527 ft | 132 kts | 148° |
| 2026-05-05 12:41 | 37.49478 | 126.43055 | 332 ft | 131 kts | 147° |
| 2026-05-05 12:41 | 37.48726 | 126.43723 | 179 ft | 131 kts | 146° |
| 2026-05-05 12:41 | 37.47984 | 126.44391 | 42 ft | 130 kts | 144° |
| 2026-05-05 12:41 | 37.47337 | 126.44955 | 37 ft | 93 kts | 142° |
| 2026-05-05 12:42 | 37.46896 | 126.45352 | 37 ft | 71 kts | 145° |
| 2026-05-05 12:42 | 37.46572 | 126.45638 | 37 ft | 40 kts | 145° |
| 2026-05-05 12:42 | 37.46348 | 126.45789 | 37 ft | 34 kts | 172° |
| 2026-05-05 12:42 | 37.46174 | 126.45816 | 37 ft | 21 kts | 173° |
| 2026-05-05 12:43 | 37.46039 | 126.45833 | 37 ft | 8 kts | 180° |
| 2026-05-05 12:43 | 37.45987 | 126.45811 | 37 ft | 9 kts | 234° |
| 2026-05-05 12:43 | 37.45977 | 126.45783 | 37 ft | 0 kts | 240° |
| 2026-05-05 12:44 | 37.45942 | 126.45711 | 37 ft | 19 kts | 237° |
| 2026-05-05 12:44 | 37.45867 | 126.45585 | 37 ft | 7 kts | 232° |
| 2026-05-05 12:45 | 37.45838 | 126.45532 | 37 ft | 11 kts | 242° |
| 2026-05-05 12:45 | 37.45859 | 126.45435 | 37 ft | 13 kts | 317° |
| 2026-05-05 12:45 | 37.45942 | 126.45357 | 37 ft | 15 kts | 326° |
| 2026-05-05 12:45 | 37.46028 | 126.45282 | 37 ft | 15 kts | 323° |
| 2026-05-05 12:46 | 37.46113 | 126.45206 | 37 ft | 15 kts | 325° |
| 2026-05-05 12:46 | 37.46199 | 126.45130 | 36 ft | 15 kts | 324° |
| 2026-05-05 12:46 | 37.46283 | 126.45053 | 37 ft | 15 kts | 324° |
| 2026-05-05 12:46 | 37.46369 | 126.44978 | 37 ft | 15 kts | 325° |
| 2026-05-05 12:47 | 37.46455 | 126.44902 | 37 ft | 15 kts | 324° |
| 2026-05-05 12:47 | 37.46540 | 126.44826 | 37 ft | 15 kts | 324° |
| 2026-05-05 12:47 | 37.46626 | 126.44750 | 37 ft | 15 kts | 324° |
| 2026-05-05 12:47 | 37.46709 | 126.44672 | 37 ft | 15 kts | 310° |
| 2026-05-05 12:48 | 37.46679 | 126.44556 | 36 ft | 15 kts | 235° |
| 2026-05-05 12:48 | 37.46620 | 126.44447 | 35 ft | 15 kts | 239° |
| 2026-05-05 12:48 | 37.46567 | 126.44333 | 37 ft | 15 kts | 238° |
| 2026-05-05 12:48 | 37.46504 | 126.44227 | 37 ft | 15 kts | 233° |
| 2026-05-05 12:49 | 37.46442 | 126.44123 | 36 ft | 15 kts | 233° |
| 2026-05-05 12:49 | 37.46368 | 126.43986 | 37 ft | 23 kts | 234° |
| 2026-05-05 12:49 | 37.46273 | 126.43819 | 37 ft | 23 kts | 234° |
| 2026-05-05 12:49 | 37.46179 | 126.43652 | 37 ft | 23 kts | 234° |
| 2026-05-05 12:50 | 37.46089 | 126.43494 | 37 ft | 16 kts | 235° |
| 2026-05-05 12:50 | 37.46025 | 126.43377 | 37 ft | 16 kts | 235° |
| 2026-05-05 12:50 | 37.46017 | 126.43284 | 37 ft | 11 kts | 330° |
| 2026-05-05 12:50 | 37.46082 | 126.43233 | 37 ft | 11 kts | 325° |
| 2026-05-05 12:51 | 37.46127 | 126.43193 | 37 ft | 1 kts | 325° |
| 2026-05-05 12:51 | 37.46146 | 126.43188 | 37 ft | 3 kts | 6° |
| 2026-05-05 12:51 | 37.46175 | 126.43239 | 35 ft | 7 kts | 58° |
| 2026-05-05 12:51 | 37.46185 | 126.43260 | 36 ft | 1 kts | 54° |
| 2026-05-05 12:52 | 37.46187 | 126.43263 | 37 ft | 0 kts | 54° |
| 2026-05-05 12:52 | 37.46191 | 126.43269 | 37 ft | 0 kts | 54° |
| 2026-05-05 12:52 | 37.46191 | 126.43270 | 35 ft | 0 kts | 54° |